Time;durP1;ratioP1;P1;durP2;ratioP2;P2;SDS_P1;SDS_P2;PMS_P1;PMS_P2;Temp;Humidity;BMP_temperature;BMP_pressure;BME280_temperature;BME280_humidity;BME280_pressure;Samples;Min_cycle;Max_cycle;Signal;HPM_P1;HPM_P2
2022/10/31 00:02:03;;;;;;;48.43;28.70;;;;;;;11.74;100.00;101400.44;7387973;19;20757;-47
2022/10/31 00:04:33;;;;;;;48.40;29.53;;;;;;;11.75;100.00;101396.16;7385711;19;20391;-48
2022/10/31 00:07:02;;;;;;;51.00;29.10;;;;;;;11.72;100.00;101398.59;7392299;19;20412;-51
2022/10/31 00:09:32;;;;;;;51.20;28.73;;;;;;;11.62;100.00;101399.84;7390412;19;20424;-50
2022/10/31 00:12:01;;;;;;;54.50;30.27;;;;;;;11.63;100.00;101406.78;7388665;19;20419;-47
2022/10/31 00:14:33;;;;;;;51.07;28.83;;;;;;;11.63;100.00;101411.97;7386123;19;20413;-48
2022/10/31 00:17:03;;;;;;;44.27;26.90;;;;;;;11.61;100.00;101408.44;7387425;19;20391;-49
2022/10/31 00:19:32;;;;;;;47.70;28.60;;;;;;;11.59;100.00;101404.91;7384427;19;20462;-51
2022/10/31 00:22:02;;;;;;;47.30;27.00;;;;;;;11.63;100.00;101411.09;7388106;19;20394;-48
2022/10/31 00:24:31;;;;;;;48.60;28.67;;;;;;;11.56;100.00;101405.63;7386743;19;20391;-49
2022/10/31 00:27:01;;;;;;;47.10;28.10;;;;;;;11.55;100.00;101409.03;7387769;19;20386;-47
2022/10/31 00:29:30;;;;;;;42.57;25.97;;;;;;;11.54;100.00;101411.53;7385073;19;20936;-48
2022/10/31 00:32:02;;;;;;;44.97;26.43;;;;;;;11.58;100.00;101413.44;7386740;19;20386;-50
2022/10/31 00:34:32;;;;;;;42.33;25.83;;;;;;;11.57;100.00;101414.25;7385980;19;20398;-49
2022/10/31 00:37:01;;;;;;;47.73;27.07;;;;;;;11.56;100.00;101420.25;7387566;19;20920;-46
2022/10/31 00:39:31;;;;;;;45.50;27.57;;;;;;;11.54;100.00;101416.72;7393169;19;20394;-48
2022/10/31 00:42:00;;;;;;;51.73;27.87;;;;;;;11.56;100.00;101425.41;7395681;19;20427;-47
2022/10/31 00:44:30;;;;;;;45.37;27.70;;;;;;;11.50;100.00;101423.44;7393710;19;20382;-48
2022/10/31 00:47:02;;;;;;;46.00;26.50;;;;;;;11.53;100.00;101413.22;7394955;19;20792;-48
2022/10/31 00:49:31;;;;;;;49.87;28.80;;;;;;;11.55;100.00;101413.31;7392947;19;20390;-47
2022/10/31 00:52:01;;;;;;;47.13;27.57;;;;;;;11.65;100.00;101410.38;7396181;19;20389;-48
2022/10/31 00:54:30;;;;;;;46.47;28.47;;;;;;;11.56;100.00;101415.06;7392910;19;20395;-52
2022/10/31 00:57:00;;;;;;;52.63;29.43;;;;;;;11.53;100.00;101399.44;7393589;19;20400;-48
2022/10/31 00:59:30;;;;;;;50.90;26.23;;;;;;;11.44;100.00;101411.06;7392661;19;20406;-49
2022/10/31 01:01:59;;;;;;;47.07;26.30;;;;;;;11.36;100.00;101417.56;7395009;19;20483;-48
2022/10/31 01:04:32;;;;;;;45.60;28.20;;;;;;;11.44;100.00;101429.16;7395370;19;20391;-48
2022/10/31 01:07:01;;;;;;;46.73;26.83;;;;;;;11.44;100.00;101442.09;7394382;19;20398;-49
2022/10/31 01:09:33;;;;;;;55.63;28.50;;;;;;;11.44;100.00;101456.72;7391388;19;20764;-51
2022/10/31 01:12:02;;;;;;;48.17;26.30;;;;;;;11.44;100.00;101455.00;7394231;19;20927;-48
2022/10/31 01:14:33;;;;;;;51.00;28.50;;;;;;;11.41;100.00;101462.63;7392062;19;20405;-49
2022/10/31 01:17:03;;;;;;;46.37;27.57;;;;;;;11.42;100.00;101476.41;7397892;19;20429;-51
2022/10/31 01:19:35;;;;;;;47.47;26.30;;;;;;;11.46;100.00;101489.56;7392498;19;20394;-47
2022/10/31 01:22:05;;;;;;;56.67;28.90;;;;;;;11.47;100.00;101482.69;7394748;19;20909;-47
2022/10/31 01:24:34;;;;;;;51.93;29.73;;;;;;;11.44;100.00;101486.00;7392615;19;20918;-48
2022/10/31 01:27:04;;;;;;;56.33;30.30;;;;;;;11.52;100.00;101493.25;7392626;19;20417;-48
2022/10/31 01:29:33;;;;;;;61.33;29.37;;;;;;;11.54;100.00;101489.06;7392662;19;20963;-49
2022/10/31 01:32:03;;;;;;;50.93;30.43;;;;;;;11.51;100.00;101488.91;7394935;19;20396;-48
2022/10/31 01:34:35;;;;;;;51.10;30.50;;;;;;;11.56;100.00;101477.09;7391219;19;20413;-48
2022/10/31 01:37:05;;;;;;;52.00;31.00;;;;;;;11.57;100.00;101481.44;7393825;19;20387;-47
2022/10/31 01:39:34;;;;;;;58.87;30.03;;;;;;;11.53;100.00;101483.00;7392658;19;20391;-46
2022/10/31 01:42:04;;;;;;;51.93;31.87;;;;;;;11.53;100.00;101480.41;7394023;19;20933;-51
2022/10/31 01:44:53;;;;;;;59.47;31.20;;;;;;;11.53;100.00;101485.59;7388973;19;20383;-48
2022/10/31 01:47:29;;;;;;;60.70;31.03;;;;;;;11.59;100.00;101477.25;7392224;19;20431;-49
2022/10/31 01:50:03;;;;;;;53.50;31.00;;;;;;;11.55;100.00;101489.16;7391397;19;20435;-48
2022/10/31 01:52:35;;;;;;;59.80;32.90;;;;;;;11.53;100.00;101484.72;7394479;19;20767;-48
2022/10/31 01:55:07;;;;;;;56.90;31.70;;;;;;;11.52;100.00;101490.66;7390516;19;20613;-48
2022/10/31 01:57:38;;;;;;;64.43;32.63;;;;;;;11.52;100.00;101490.66;7393251;19;20423;-49
2022/10/31 02:00:10;;;;;;;65.17;32.60;;;;;;;11.51;100.00;101489.78;7391426;19;20409;-50
2022/10/31 02:02:40;;;;;;;60.43;33.60;;;;;;;11.51;100.00;101496.66;7393415;19;20389;-53
2022/10/31 02:05:15;;;;;;;56.70;31.90;;;;;;;11.48;100.00;101493.13;7387571;19;20425;-48
2022/10/31 02:07:47;;;;;;;57.90;32.17;;;;;;;11.45;100.00;101500.69;7392980;19;20759;-47
2022/10/31 02:10:16;;;;;;;69.83;33.70;;;;;;;11.44;100.00;101493.75;7390763;19;20420;-47
2022/10/31 02:12:47;;;;;;;61.33;33.40;;;;;;;11.47;100.00;101483.59;7396842;19;20386;-49
2022/10/31 02:15:16;;;;;;;62.60;33.67;;;;;;;11.47;100.00;101491.34;7390160;19;20410;-47
2022/10/31 02:17:46;;;;;;;65.30;33.57;;;;;;;11.47;100.00;101487.84;7394660;19;20427;-48
2022/10/31 02:20:21;;;;;;;64.83;34.37;;;;;;;11.42;100.00;101491.91;7390117;19;20734;-48
2022/10/31 02:23:26;;;;;;;60.20;33.70;;;;;;;11.44;100.00;101488.59;7391907;19;20382;-46
2022/10/31 02:26:10;;;;;;;62.27;33.40;;;;;;;11.46;100.00;101481.81;7387236;19;20420;-47
2022/10/31 02:28:52;;;;;;;58.80;34.33;;;;;;;11.46;100.00;101481.81;7391336;19;20426;-47
2022/10/31 02:31:36;;;;;;;63.70;34.03;;;;;;;11.45;100.00;101477.44;7390040;19;20445;-46
2022/10/31 02:34:13;;;;;;;66.43;34.90;;;;;;;11.44;100.00;101467.91;7392804;19;20373;-47
2022/10/31 02:36:47;;;;;;;67.00;35.50;;;;;;;11.46;100.00;101471.50;7389102;19;20433;-48
2022/10/31 02:39:23;;;;;;;80.27;37.60;;;;;;;11.47;100.00;101465.50;7389543;19;20462;-48
2022/10/31 02:41:58;;;;;;;76.33;35.80;;;;;;;11.47;100.00;101457.75;7389108;19;20771;-48
2022/10/31 02:44:32;;;;;;;69.27;36.20;;;;;;;11.47;100.00;101454.28;7391291;19;20401;-48
2022/10/31 02:47:06;;;;;;;73.67;37.80;;;;;;;11.47;100.00;101447.41;7390605;19;20450;-48
2022/10/31 02:49:39;;;;;;;66.57;35.47;;;;;;;11.46;100.00;101440.47;7390103;19;20387;-50
2022/10/31 02:52:17;;;;;;;68.40;35.47;;;;;;;11.46;100.00;101424.06;7391914;19;20390;-49
2022/10/31 02:54:47;;;;;;;77.27;37.10;;;;;;;11.42;100.00;101432.47;7389001;19;20390;-48
2022/10/31 02:57:19;;;;;;;75.13;37.47;;;;;;;11.42;100.00;101424.72;7389516;19;20433;-49
2022/10/31 02:59:51;;;;;;;70.70;35.57;;;;;;;11.41;100.00;101430.72;7385282;19;20422;-48
2022/10/31 03:02:33;;;;;;;65.40;36.20;;;;;;;11.35;100.00;101431.31;7394420;19;20399;-48
2022/10/31 03:05:21;;;;;;;82.57;36.70;;;;;;;11.36;100.00;101438.25;7384909;19;20416;-48
2022/10/31 03:07:57;;;;;;;71.23;34.57;;;;;;;11.37;100.00;101433.97;7390626;19;20440;-48
2022/10/31 03:10:35;;;;;;;77.80;37.13;;;;;;;11.35;100.00;101442.50;7390923;19;20768;-50
2022/10/31 03:13:12;;;;;;;68.70;35.10;;;;;;;11.32;100.00;101437.22;7391456;19;20938;-51
2022/10/31 03:15:44;;;;;;;72.77;37.47;;;;;;;11.37;100.00;101439.16;7388524;19;20413;-47
2022/10/31 03:18:19;;;;;;;74.17;36.47;;;;;;;11.34;100.00;101433.00;7389874;19;20446;-46
2022/10/31 03:20:52;;;;;;;86.60;36.57;;;;;;;11.30;100.00;101437.94;7389131;19;20431;-48
2022/10/31 03:23:22;;;;;;;73.60;36.00;;;;;;;11.30;100.00;101441.44;7395239;19;20515;-47
2022/10/31 03:25:53;;;;;;;75.80;36.40;;;;;;;11.32;100.00;101449.22;7387834;19;20413;-47
2022/10/31 03:28:26;;;;;;;68.50;36.07;;;;;;;11.28;100.00;101450.78;7390429;19;20441;-48
2022/10/31 03:30:56;;;;;;;69.53;37.23;;;;;;;11.26;100.00;101459.25;7389530;19;20445;-49
2022/10/31 03:33:30;;;;;;;68.07;35.80;;;;;;;11.26;100.00;101464.41;7390796;19;20391;-49
2022/10/31 03:36:02;;;;;;;66.63;36.00;;;;;;;11.23;100.00;101461.69;7386408;19;20417;-47
2022/10/31 03:38:32;;;;;;;70.17;37.00;;;;;;;11.26;100.00;101467.91;7390167;19;20423;-50
2022/10/31 03:41:03;;;;;;;62.20;32.87;;;;;;;11.29;100.00;101472.34;7388177;19;20446;-50
2022/10/31 03:43:35;;;;;;;81.17;36.57;;;;;;;11.28;100.00;101475.75;7391214;19;20383;-49
2022/10/31 03:46:05;;;;;;;80.17;34.87;;;;;;;11.30;100.00;101481.84;7387868;19;20759;-48
2022/10/31 03:48:37;;;;;;;67.93;35.37;;;;;;;11.28;100.00;101491.25;7389731;19;20410;-48
2022/10/31 03:51:10;;;;;;;81.57;34.77;;;;;;;11.25;100.00;101494.53;7388372;19;20434;-48
2022/10/31 03:53:42;;;;;;;83.33;37.80;;;;;;;11.39;100.00;101495.22;7390046;19;20732;-48
2022/10/31 03:56:15;;;;;;;76.27;35.53;;;;;;;11.41;100.00;101503.97;7386603;19;20421;-48
2022/10/31 03:58:48;;;;;;;66.30;34.37;;;;;;;11.31;100.00;101510.34;7388660;19;20446;-48
2022/10/31 04:01:19;;;;;;;67.50;35.23;;;;;;;11.26;100.00;101514.41;7387722;19;20810;-49
2022/10/31 04:03:52;;;;;;;64.10;33.70;;;;;;;11.24;100.00;101522.88;7390938;19;20415;-47
2022/10/31 04:06:24;;;;;;;65.33;34.03;;;;;;;11.18;100.00;101528.63;7386637;19;20971;-48
2022/10/31 04:08:55;;;;;;;64.43;33.07;;;;;;;11.16;100.00;101544.03;7388490;19;20441;-48
2022/10/31 04:11:30;;;;;;;75.23;36.10;;;;;;;11.19;100.00;101549.34;7386024;19;20387;-51
2022/10/31 04:14:00;;;;;;;73.33;35.17;;;;;;;11.16;100.00;101554.38;7388509;19;20391;-48
2022/10/31 04:16:29;;;;;;;77.33;36.10;;;;;;;11.23;100.00;101554.69;7387238;19;20413;-48
2022/10/31 04:19:01;;;;;;;72.63;35.73;;;;;;;11.27;100.00;101554.03;7388490;19;20429;-46
2022/10/31 04:21:31;;;;;;;81.40;37.77;;;;;;;11.32;100.00;101549.97;7386498;19;20421;-49
2022/10/31 04:24:01;;;;;;;93.67;39.53;;;;;;;11.36;100.00;101546.75;7389436;19;20763;-48
2022/10/31 04:26:30;;;;;;;100.17;40.37;;;;;;;11.38;100.00;101545.13;7381246;19;20798;-49
2022/10/31 04:29:00;;;;;;;83.53;37.53;;;;;;;11.39;100.00;101531.38;7390890;19;20450;-47
2022/10/31 04:31:30;;;;;;;89.17;37.63;;;;;;;11.38;100.00;101532.22;7386142;19;20420;-48
2022/10/31 04:34:02;;;;;;;84.70;38.60;;;;;;;11.42;100.00;101525.50;7389355;19;20384;-48
2022/10/31 04:36:31;;;;;;;81.93;37.30;;;;;;;11.50;100.00;101518.13;7385696;19;20426;-49
2022/10/31 04:39:00;;;;;;;96.27;40.83;;;;;;;11.41;100.00;101503.06;7388015;19;20761;-48
2022/10/31 04:41:30;;;;;;;102.60;41.17;;;;;;;11.44;100.00;101503.22;7386482;19;20425;-48
2022/10/31 04:43:59;;;;;;;96.73;40.87;;;;;;;11.50;100.00;101493.19;7389194;19;20421;-50
2022/10/31 04:46:29;;;;;;;132.73;40.93;;;;;;;11.51;100.00;101484.63;7386242;19;20407;-50
2022/10/31 04:49:01;;;;;;;105.47;40.43;;;;;;;11.51;100.00;101478.56;7385399;19;20423;-48
2022/10/31 04:51:31;;;;;;;104.73;40.23;;;;;;;11.53;100.00;101482.13;7386841;19;20863;-48
2022/10/31 04:54:00;;;;;;;94.10;42.10;;;;;;;11.51;100.00;101478.56;7388603;19;20417;-48
2022/10/31 04:56:30;;;;;;;113.40;39.97;;;;;;;11.56;100.00;101471.94;7384887;19;20426;-49
2022/10/31 04:58:59;;;;;;;103.43;40.30;;;;;;;11.56;100.00;101456.41;7386769;19;20426;-48
2022/10/31 05:01:29;;;;;;;102.33;38.67;;;;;;;11.57;100.00;101442.69;7385020;19;20406;-48
2022/10/31 05:04:01;;;;;;;109.47;39.03;;;;;;;11.51;100.00;101432.94;7388326;19;20498;-47
2022/10/31 05:06:31;;;;;;;69.97;35.60;;;;;;;11.57;100.00;101422.00;7382600;19;20448;-47
2022/10/31 05:09:00;;;;;;;96.17;40.43;;;;;;;11.48;100.00;101423.34;7386254;19;20455;-51
2022/10/31 05:11:30;;;;;;;96.07;38.40;;;;;;;11.50;100.00;101412.19;7385953;19;20441;-47
2022/10/31 05:13:59;;;;;;;78.43;35.57;;;;;;;11.48;100.00;101394.91;7388055;19;20407;-49
2022/10/31 05:16:29;;;;;;;90.93;37.13;;;;;;;11.56;100.00;101389.22;7384377;19;20406;-49
2022/10/31 05:18:58;;;;;;;89.67;35.77;;;;;;;11.57;100.00;101375.50;7386618;19;20430;-47
2022/10/31 05:21:30;;;;;;;107.60;36.83;;;;;;;11.55;100.00;101366.78;7384859;19;20436;-47
2022/10/31 05:24:00;;;;;;;79.40;36.10;;;;;;;11.56;100.00;101368.56;7389415;19;20764;-48
2022/10/31 05:26:29;;;;;;;80.63;36.93;;;;;;;11.51;100.00;101362.28;7393337;19;20430;-48
2022/10/31 05:28:59;;;;;;;113.40;35.20;;;;;;;11.53;100.00;101361.53;7393159;19;20441;-50
2022/10/31 05:31:28;;;;;;;102.37;35.87;;;;;;;11.57;100.00;101359.97;7392412;19;20410;-47
2022/10/31 05:33:58;;;;;;;109.60;35.17;;;;;;;11.51;100.00;101350.25;7395084;19;20908;-51
2022/10/31 05:36:30;;;;;;;80.80;37.43;;;;;;;11.52;100.00;101343.38;7391495;19;20433;-47
2022/10/31 05:39:00;;;;;;;90.63;35.13;;;;;;;11.46;100.00;101342.28;7391607;19;20809;-48
2022/10/31 05:41:29;;;;;;;150.87;39.00;;;;;;;11.56;100.00;101337.53;7391699;19;20418;-49
2022/10/31 05:43:59;;;;;;;78.83;35.40;;;;;;;11.50;100.00;101337.25;7394829;19;20422;-49
2022/10/31 05:46:28;;;;;;;89.27;35.23;;;;;;;11.45;100.00;101332.75;7387906;19;20449;-49
2022/10/31 05:48:58;;;;;;;87.83;34.47;;;;;;;11.39;100.00;101329.88;7389295;19;20493;-49
2022/10/31 05:51:33;;;;;;;129.33;36.20;;;;;;;11.49;100.00;101326.06;7389086;19;20457;-49
2022/10/31 05:54:03;;;;;;;116.60;37.50;;;;;;;11.47;100.00;101318.22;7392344;19;20414;-48
2022/10/31 05:56:32;;;;;;;87.83;34.50;;;;;;;11.66;100.00;101306.16;7388066;19;20435;-49
2022/10/31 05:59:02;;;;;;;80.47;34.00;;;;;;;11.58;100.00;101303.22;7389141;19;20444;-49
2022/10/31 06:01:31;;;;;;;97.50;34.30;;;;;;;11.57;100.00;101303.13;7388591;19;20448;-49
2022/10/31 06:04:01;;;;;;;119.23;38.30;;;;;;;11.61;100.00;101299.88;7392631;19;20493;-49
2022/10/31 06:06:33;;;;;;;93.73;35.87;;;;;;;11.50;100.00;101290.75;7388737;19;20408;-50
2022/10/31 06:09:02;;;;;;;85.83;35.10;;;;;;;11.46;100.00;101306.13;7391413;19;20421;-49
2022/10/31 06:11:32;;;;;;;83.60;33.90;;;;;;;11.46;100.00;101303.53;7391159;19;20518;-48
2022/10/31 06:14:01;;;;;;;96.23;33.47;;;;;;;11.41;100.00;101324.78;7392798;19;20387;-48
2022/10/31 06:16:31;;;;;;;80.60;31.00;;;;;;;11.41;100.00;101328.25;7389464;19;20842;-48
2022/10/31 06:19:00;;;;;;;116.03;32.50;;;;;;;11.39;100.00;101326.41;7392005;19;20460;-50
2022/10/31 06:21:32;;;;;;;111.07;32.93;;;;;;;11.37;100.00;101335.81;7389960;19;20421;-48
2022/10/31 06:24:02;;;;;;;132.87;33.27;;;;;;;11.32;100.00;101344.22;7392978;19;20414;-49
2022/10/31 06:26:31;;;;;;;126.20;30.50;;;;;;;11.33;100.00;101343.38;7388790;19;20490;-48
2022/10/31 06:29:00;;;;;;;68.03;30.10;;;;;;;11.51;100.00;101334.75;7390981;19;20420;-47
2022/10/31 06:31:32;;;;;;;73.93;31.77;;;;;;;11.53;100.00;101329.66;7392654;19;20432;-48
2022/10/31 06:34:02;;;;;;;63.60;28.50;;;;;;;11.49;100.00;101320.88;7392959;19;20378;-48
2022/10/31 06:36:34;;;;;;;79.53;28.20;;;;;;;11.44;100.00;101315.47;7386842;19;20409;-49
2022/10/31 06:39:03;;;;;;;76.47;29.87;;;;;;;11.41;100.00;101312.75;7390429;19;20440;-48
2022/10/31 06:41:33;;;;;;;88.43;29.70;;;;;;;11.41;100.00;101323.09;7388981;19;20436;-48
2022/10/31 06:44:02;;;;;;;68.43;29.07;;;;;;;11.45;100.00;101330.16;7392620;19;20422;-48
2022/10/31 06:46:37;;;;;;;75.97;30.97;;;;;;;11.44;100.00;101337.88;7388288;19;20430;-48
2022/10/31 06:49:06;;;;;;;68.50;27.60;;;;;;;11.53;100.00;101347.75;7390270;19;20418;-49
2022/10/31 06:51:38;;;;;;;73.43;28.33;;;;;;;11.52;100.00;101346.84;7389741;19;20418;-50
2022/10/31 06:54:08;;;;;;;80.33;34.93;;;;;;;11.68;100.00;101353.63;7392229;19;20395;-50
2022/10/31 06:56:37;;;;;;;85.17;28.30;;;;;;;11.67;100.00;101349.28;7388070;19;20453;-48
2022/10/31 06:59:07;;;;;;;81.13;29.90;;;;;;;11.63;100.00;101347.34;7389142;19;20430;-48
2022/10/31 07:01:36;;;;;;;72.27;29.07;;;;;;;11.65;100.00;101356.09;7388579;19;20418;-48
2022/10/31 07:04:06;;;;;;;67.17;29.27;;;;;;;11.57;100.00;101370.31;7391621;19;20387;-48
2022/10/31 07:06:38;;;;;;;66.53;30.00;;;;;;;11.60;100.00;101386.84;7386783;19;20430;-48
2022/10/31 07:09:08;;;;;;;112.93;31.93;;;;;;;11.53;100.00;101395.13;7389256;19;20421;-49
2022/10/31 07:11:37;;;;;;;97.80;31.10;;;;;;;11.52;100.00;101407.97;7388524;19;20414;-48
2022/10/31 07:14:07;;;;;;;87.93;29.80;;;;;;;11.52;100.00;101415.72;7391484;19;20404;-48
2022/10/31 07:16:36;;;;;;;97.47;31.67;;;;;;;11.47;100.00;101431.91;7387026;19;20439;-48
2022/10/31 07:19:06;;;;;;;100.13;27.07;;;;;;;11.46;100.00;101445.66;7389633;19;20453;-48
2022/10/31 07:21:35;;;;;;;95.13;29.47;;;;;;;11.43;100.00;101450.66;7387992;19;20428;-48
2022/10/31 07:24:07;;;;;;;83.20;28.97;;;;;;;11.41;100.00;101457.44;7396070;19;20974;-50
2022/10/31 07:26:37;;;;;;;141.23;29.30;;;;;;;11.38;100.00;101446.94;7386332;19;20453;-48
2022/10/31 07:29:07;;;;;;;93.80;26.70;;;;;;;11.38;100.00;101452.13;7388846;19;20412;-48
2022/10/31 07:31:36;;;;;;;140.60;27.60;;;;;;;11.44;100.00;101447.25;7388723;19;20472;-49
2022/10/31 07:34:06;;;;;;;100.20;27.30;;;;;;;11.42;100.00;101430.78;7391060;19;20405;-49
2022/10/31 07:36:35;;;;;;;98.90;26.50;;;;;;;11.37;100.00;101431.41;7387143;19;20426;-47
2022/10/31 07:39:07;;;;;;;113.77;25.93;;;;;;;11.43;100.00;101429.13;7389249;19;20421;-48
2022/10/31 07:41:36;;;;;;;79.03;29.00;;;;;;;11.47;100.00;101425.84;7388558;19;20426;-48
2022/10/31 07:44:06;;;;;;;58.57;27.63;;;;;;;11.47;100.00;101416.41;7389716;19;20413;-48
2022/10/31 07:46:36;;;;;;;109.73;25.63;;;;;;;11.48;100.00;101418.19;7386984;19;20458;-47
2022/10/31 07:49:06;;;;;;;81.73;26.47;;;;;;;11.47;100.00;101411.25;7388671;19;20444;-50
2022/10/31 07:51:36;;;;;;;70.67;24.57;;;;;;;11.44;100.00;101405.03;7385661;19;20426;-49
2022/10/31 07:54:08;;;;;;;123.80;25.60;;;;;;;11.48;100.00;101412.09;7390554;19;20419;-48
2022/10/31 07:56:37;;;;;;;91.60;24.07;;;;;;;11.39;100.00;101416.84;7385970;19;20450;-49
2022/10/31 07:59:07;;;;;;;94.07;25.23;;;;;;;11.38;100.00;101410.78;7387849;19;20457;-48
2022/10/31 08:01:36;;;;;;;87.57;24.17;;;;;;;11.35;100.00;101414.09;7385137;19;20487;-48
2022/10/31 08:04:06;;;;;;;83.10;24.07;;;;;;;11.33;100.00;101414.81;7393891;19;20421;-49
2022/10/31 08:06:35;;;;;;;57.30;21.43;;;;;;;11.26;100.00;101426.56;7389860;19;20465;-47
2022/10/31 08:09:08;;;;;;;78.27;22.50;;;;;;;11.27;100.00;101427.47;7388251;19;20429;-47
2022/10/31 08:11:37;;;;;;;47.93;22.03;;;;;;;11.37;100.00;101427.09;7386783;19;20397;-47
2022/10/31 08:14:07;;;;;;;82.93;20.80;;;;;;;11.47;100.00;101421.56;7389537;19;20393;-47
2022/10/31 08:16:36;;;;;;;65.77;22.40;;;;;;;11.47;100.00;101421.56;7385641;19;20432;-47
2022/10/31 08:19:06;;;;;;;56.53;22.73;;;;;;;11.54;100.00;101409.81;7390916;19;20426;-49
2022/10/31 08:21:35;;;;;;;71.80;31.10;;;;;;;12.02;100.00;101411.19;7386768;19;20409;-47
2022/10/31 08:24:08;;;;;;;181.47;85.63;;;;;;;12.54;100.00;101399.75;7389285;19;20414;-48
2022/10/31 08:26:38;;;;;;;180.37;87.17;;;;;;;12.54;100.00;101397.19;7385139;19;20435;-49
2022/10/31 08:29:07;;;;;;;79.17;24.33;;;;;;;12.70;100.00;101408.19;7386609;19;20424;-50
2022/10/31 08:31:37;;;;;;;64.90;20.40;;;;;;;12.58;100.00;101410.25;7386848;19;20445;-48
2022/10/31 08:34:11;;;;;;;56.30;28.30;;;;;;;12.64;100.00;101437.28;7388315;19;20382;-48
2022/10/31 08:36:42;;;;;;;42.80;20.57;;;;;;;12.35;100.00;101508.44;7384436;19;20446;-49
2022/10/31 08:39:14;;;;;;;105.03;18.83;;;;;;;12.12;100.00;101578.09;7387204;19;20933;-50
2022/10/31 08:41:43;;;;;;;52.87;18.23;;;;;;;11.98;100.00;101627.41;7389483;19;20918;-47
2022/10/31 08:44:13;;;;;;;49.23;24.20;;;;;;;12.09;100.00;101655.50;7389213;19;20944;-49
2022/10/31 08:46:42;;;;;;;54.87;25.00;;;;;;;12.20;100.00;101677.63;7383877;19;20459;-49
2022/10/31 08:49:12;;;;;;;62.33;18.77;;;;;;;12.12;100.00;101697.06;7387204;19;20430;-49
2022/10/31 08:51:41;;;;;;;77.83;17.87;;;;;;;12.09;100.00;101702.06;7385686;19;20438;-47
2022/10/31 08:54:13;;;;;;;44.83;21.30;;;;;;;12.00;100.00;101718.88;7387709;19;20398;-48
2022/10/31 08:56:43;;;;;;;49.27;22.50;;;;;;;12.06;100.00;101738.16;7384565;19;20417;-47
2022/10/31 08:59:12;;;;;;;37.00;17.37;;;;;;;11.96;100.00;101758.34;7388373;19;20432;-48
2022/10/31 09:01:42;;;;;;;30.60;16.20;;;;;;;12.00;100.00;101759.38;7388885;19;20426;-48
2022/10/31 09:04:11;;;;;;;38.73;16.03;;;;;;;12.02;100.00;101763.81;7395565;19;20378;-47
2022/10/31 09:06:41;;;;;;;28.93;14.33;;;;;;;12.10;100.00;101776.31;7390339;19;20431;-47
2022/10/31 09:09:32;;;;;;;36.20;14.80;;;;;;;12.05;100.00;101777.75;7390919;19;20435;-50
2022/10/31 09:12:01;;;;;;;33.63;14.60;;;;;;;11.99;100.00;101781.75;7395047;19;20421;-51
2022/10/31 09:14:31;;;;;;;28.80;13.97;;;;;;;11.87;100.00;101789.78;7392043;19;20748;-49
2022/10/31 09:17:00;;;;;;;33.03;15.90;;;;;;;11.96;100.00;101794.56;7394383;19;20754;-49
2022/10/31 09:19:30;;;;;;;44.00;16.83;;;;;;;11.98;100.00;101792.94;7389606;19;20442;-52
2022/10/31 09:22:00;;;;;;;46.07;15.53;;;;;;;11.96;100.00;101793.66;7394706;19;20412;-53
2022/10/31 09:24:32;;;;;;;29.13;15.20;;;;;;;11.95;100.00;101795.34;7392032;19;20408;-51
2022/10/31 09:27:01;;;;;;;33.47;15.57;;;;;;;11.77;100.00;101790.09;7394512;19;20388;-52
2022/10/31 09:29:31;;;;;;;54.27;14.00;;;;;;;11.74;100.00;101806.31;7390232;19;20422;-48
2022/10/31 09:32:00;;;;;;;32.47;14.60;;;;;;;11.81;100.00;101806.66;7392382;19;20401;-55
2022/10/31 09:34:30;;;;;;;35.77;15.80;;;;;;;11.90;100.00;101807.16;7393612;19;20417;-49
2022/10/31 09:36:59;;;;;;;33.90;15.17;;;;;;;11.89;100.00;101795.00;7388011;19;20387;-48
2022/10/31 09:39:31;;;;;;;36.00;15.70;;;;;;;11.83;100.00;101794.69;7387927;19;20423;-49
2022/10/31 09:42:17;;;;;;;60.37;27.07;;;;;;;11.87;100.00;101796.63;7389893;19;20451;-48
2022/10/31 09:44:52;;;;;;;37.60;15.73;;;;;;;12.04;100.00;101794.97;7389958;19;20412;-49
2022/10/31 09:47:29;;;;;;;33.77;16.40;;;;;;;11.97;100.00;101798.91;7391669;19;20877;-50
2022/10/31 09:50:10;;;;;;;28.20;14.23;;;;;;;11.92;100.00;101797.78;7390139;19;20410;-50
2022/10/31 09:52:42;;;;;;;33.23;17.03;;;;;;;11.93;100.00;101803.81;7392243;19;20918;-49
2022/10/31 09:55:19;;;;;;;33.13;14.20;;;;;;;11.82;100.00;101811.00;7388280;19;20411;-50
2022/10/31 09:57:49;;;;;;;26.93;13.53;;;;;;;11.67;100.00;101817.16;7391543;19;20446;-51
2022/10/31 10:00:21;;;;;;;37.57;19.33;;;;;;;11.68;100.00;101821.50;7383283;19;20411;-48
2022/10/31 10:02:54;;;;;;;38.33;15.33;;;;;;;11.74;100.00;101821.84;7392107;19;20391;-48
2022/10/31 10:05:27;;;;;;;33.23;15.80;;;;;;;11.89;100.00;101819.19;7388548;19;20444;-49
2022/10/31 10:08:02;;;;;;;33.27;15.63;;;;;;;12.00;100.00;101814.56;7390677;19;20431;-51
2022/10/31 10:10:44;;;;;;;33.00;17.20;;;;;;;11.91;100.00;101811.50;7388564;19;20473;-48
2022/10/31 10:13:40;;;;;;;27.93;15.67;;;;;;;11.82;100.00;101803.25;7392956;19;20391;-46
2022/10/31 10:16:19;;;;;;;31.17;16.33;;;;;;;11.77;100.00;101807.28;7388531;19;20411;-50
2022/10/31 10:18:59;;;;;;;30.23;15.63;;;;;;;11.74;100.00;101803.72;7389234;19;20422;-49
2022/10/31 10:21:37;;;;;;;29.27;15.00;;;;;;;11.87;100.00;101801.81;7388788;19;20439;-48
2022/10/31 10:24:20;;;;;;;35.57;15.73;;;;;;;11.96;100.00;101789.38;7396130;19;20917;-47
2022/10/31 10:26:57;;;;;;;30.70;14.50;;;;;;;11.97;100.00;101778.22;7392918;19;20453;-50
2022/10/31 10:29:34;;;;;;;35.93;15.90;;;;;;;11.95;100.00;101769.47;7392176;19;20929;-49
2022/10/31 10:32:08;;;;;;;31.13;15.97;;;;;;;12.00;100.00;101778.38;7391876;19;20402;-48
2022/10/31 10:34:42;;;;;;;31.40;15.53;;;;;;;11.90;100.00;101783.88;7387580;19;20432;-50
2022/10/31 10:37:24;;;;;;;37.50;15.43;;;;;;;11.75;100.00;101779.66;7392657;19;20372;-50
2022/10/31 10:39:56;;;;;;;34.37;17.30;;;;;;;11.67;100.00;101786.13;7389159;19;20426;-48
2022/10/31 10:48:08;;;;;;;35.80;16.57;;;;;;;11.95;100.00;101779.81;7391633;19;20442;-49
2022/10/31 10:50:41;;;;;;;32.00;16.80;;;;;;;12.01;100.00;101777.56;7390352;19;20401;-52
2022/10/31 10:53:31;;;;;;;35.30;16.00;;;;;;;12.10;100.00;101777.19;7393164;19;20723;-50
2022/10/31 10:56:07;;;;;;;28.03;14.70;;;;;;;12.15;100.00;101767.06;7388159;19;20437;-48
2022/10/31 10:58:41;;;;;;;26.17;14.57;;;;;;;12.12;100.00;101766.91;7390595;19;20444;-49
2022/10/31 11:01:14;;;;;;;28.90;14.60;;;;;;;12.18;100.00;101761.16;7388794;19;20956;-50
2022/10/31 11:04:05;;;;;;;32.37;14.97;;;;;;;12.21;100.00;101761.31;7389126;19;20407;-47
2022/10/31 11:06:34;;;;;;;28.57;14.03;;;;;;;12.32;100.00;101767.94;7388485;19;20444;-49
2022/10/31 11:09:11;;;;;;;28.13;14.07;;;;;;;12.30;100.00;101777.31;7389895;19;20432;-49
2022/10/31 11:11:41;;;;;;;28.47;15.17;;;;;;;12.34;100.00;101788.69;7389597;19;20438;-48
2022/10/31 11:14:18;;;;;;;29.20;14.17;;;;;;;12.34;100.00;101793.88;7391080;19;20957;-48
2022/10/31 11:16:50;;;;;;;26.33;14.73;;;;;;;12.40;100.00;101804.53;7387943;19;20416;-51
2022/10/31 11:19:22;;;;;;;27.87;14.50;;;;;;;12.46;100.00;101802.25;7390952;19;20440;-47
2022/10/31 11:21:51;;;;;;;28.90;14.83;;;;;;;12.46;100.00;101807.44;7387907;19;21018;-48
2022/10/31 11:24:26;;;;;;;23.67;13.17;;;;;;;12.18;100.00;101812.91;7391803;19;20398;-48
2022/10/31 11:27:12;;;;;;;28.73;14.27;;;;;;;12.17;100.00;101824.97;7394721;19;20444;-48